sensor_id;sensor_type;location;lat;lon;timestamp;temperature;humidity
4604;DHT22;2314;48.272;11.562;2024-02-21T00:00:05;4.00;99.90
4604;DHT22;2314;48.272;11.562;2024-02-21T00:02:33;4.00;99.90
4604;DHT22;2314;48.272;11.562;2024-02-21T00:05:01;3.90;99.90
4604;DHT22;2314;48.272;11.562;2024-02-21T00:07:28;3.90;99.90
4604;DHT22;2314;48.272;11.562;2024-02-21T00:09:55;3.90;99.90
4604;DHT22;2314;48.272;11.562;2024-02-21T00:12:22;3.90;99.90
4604;DHT22;2314;48.272;11.562;2024-02-21T00:14:49;3.90;99.90
4604;DHT22;2314;48.272;11.562;2024-02-21T00:17:16;4.00;99.90
4604;DHT22;2314;48.272;11.562;2024-02-21T00:19:43;4.00;99.90
4604;DHT22;2314;48.272;11.562;2024-02-21T00:22:11;4.10;99.90
4604;DHT22;2314;48.272;11.562;2024-02-21T00:24:38;4.10;99.90
4604;DHT22;2314;48.272;11.562;2024-02-21T00:27:05;4.10;99.90
4604;DHT22;2314;48.272;11.562;2024-02-21T00:29:32;4.10;99.90
4604;DHT22;2314;48.272;11.562;2024-02-21T00:32:00;4.20;99.90
4604;DHT22;2314;48.272;11.562;2024-02-21T00:34:27;4.20;99.90
4604;DHT22;2314;48.272;11.562;2024-02-21T00:36:54;4.20;99.90
4604;DHT22;2314;48.272;11.562;2024-02-21T00:39:22;4.20;99.90
4604;DHT22;2314;48.272;11.562;2024-02-21T00:41:49;4.20;99.90
4604;DHT22;2314;48.272;11.562;2024-02-21T00:44:16;4.30;99.90
4604;DHT22;2314;48.272;11.562;2024-02-21T00:46:44;4.30;99.90
4604;DHT22;2314;48.272;11.562;2024-02-21T00:49:12;4.30;99.90
4604;DHT22;2314;48.272;11.562;2024-02-21T00:51:40;4.40;99.90
4604;DHT22;2314;48.272;11.562;2024-02-21T00:54:07;4.40;99.90
4604;DHT22;2314;48.272;11.562;2024-02-21T00:56:35;4.40;99.90
4604;DHT22;2314;48.272;11.562;2024-02-21T00:59:05;4.40;99.90
4604;DHT22;2314;48.272;11.562;2024-02-21T01:01:32;4.40;99.90
4604;DHT22;2314;48.272;11.562;2024-02-21T01:04:00;4.30;99.90
4604;DHT22;2314;48.272;11.562;2024-02-21T01:06:27;4.30;99.90
4604;DHT22;2314;48.272;11.562;2024-02-21T01:08:54;4.40;99.90
4604;DHT22;2314;48.272;11.562;2024-02-21T01:11:21;4.40;99.90
4604;DHT22;2314;48.272;11.562;2024-02-21T01:13:49;4.30;99.90
4604;DHT22;2314;48.272;11.562;2024-02-21T01:16:16;4.30;99.90
4604;DHT22;2314;48.272;11.562;2024-02-21T01:18:43;4.40;99.90
4604;DHT22;2314;48.272;11.562;2024-02-21T01:21:10;4.40;99.90
4604;DHT22;2314;48.272;11.562;2024-02-21T01:23:37;4.40;99.90
4604;DHT22;2314;48.272;11.562;2024-02-21T01:26:05;4.40;99.90
4604;DHT22;2314;48.272;11.562;2024-02-21T01:28:33;4.50;99.90
4604;DHT22;2314;48.272;11.562;2024-02-21T01:31:02;4.50;99.90
4604;DHT22;2314;48.272;11.562;2024-02-21T01:33:30;4.50;99.90
4604;DHT22;2314;48.272;11.562;2024-02-21T01:36:00;4.50;99.90
4604;DHT22;2314;48.272;11.562;2024-02-21T01:38:28;4.60;99.90
4604;DHT22;2314;48.272;11.562;2024-02-21T01:40:55;4.60;99.90
4604;DHT22;2314;48.272;11.562;2024-02-21T01:43:22;4.60;99.90
4604;DHT22;2314;48.272;11.562;2024-02-21T01:45:50;4.60;99.90
4604;DHT22;2314;48.272;11.562;2024-02-21T01:48:20;4.60;99.90
4604;DHT22;2314;48.272;11.562;2024-02-21T01:50:49;4.60;99.90
4604;DHT22;2314;48.272;11.562;2024-02-21T01:53:19;4.60;99.90
4604;DHT22;2314;48.272;11.562;2024-02-21T01:55:48;4.70;99.90
4604;DHT22;2314;48.272;11.562;2024-02-21T01:58:16;4.60;99.90
4604;DHT22;2314;48.272;11.562;2024-02-21T02:00:44;4.70;99.90
4604;DHT22;2314;48.272;11.562;2024-02-21T02:03:13;4.70;99.90
4604;DHT22;2314;48.272;11.562;2024-02-21T02:05:44;4.70;99.90
4604;DHT22;2314;48.272;11.562;2024-02-21T02:08:12;4.70;99.90
4604;DHT22;2314;48.272;11.562;2024-02-21T02:10:39;4.80;99.90
4604;DHT22;2314;48.272;11.562;2024-02-21T02:13:06;4.80;99.90
4604;DHT22;2314;48.272;11.562;2024-02-21T02:15:40;4.80;99.90
4604;DHT22;2314;48.272;11.562;2024-02-21T02:18:08;4.80;99.90
4604;DHT22;2314;48.272;11.562;2024-02-21T02:20:35;4.80;99.90
4604;DHT22;2314;48.272;11.562;2024-02-21T02:23:07;4.80;99.90
4604;DHT22;2314;48.272;11.562;2024-02-21T02:25:38;4.80;99.90
4604;DHT22;2314;48.272;11.562;2024-02-21T02:28:06;4.90;99.90
4604;DHT22;2314;48.272;11.562;2024-02-21T02:30:34;4.90;99.90
4604;DHT22;2314;48.272;11.562;2024-02-21T02:33:01;4.80;99.90
4604;DHT22;2314;48.272;11.562;2024-02-21T02:35:28;4.90;99.90
4604;DHT22;2314;48.272;11.562;2024-02-21T02:37:56;4.80;99.90
4604;DHT22;2314;48.272;11.562;2024-02-21T02:40:23;4.90;99.90
4604;DHT22;2314;48.272;11.562;2024-02-21T02:42:51;4.80;99.90
4604;DHT22;2314;48.272;11.562;2024-02-21T02:45:21;4.80;99.90
4604;DHT22;2314;48.272;11.562;2024-02-21T02:47:49;4.80;99.90
4604;DHT22;2314;48.272;11.562;2024-02-21T02:50:16;4.90;99.90
4604;DHT22;2314;48.272;11.562;2024-02-21T02:52:43;4.90;99.90
4604;DHT22;2314;48.272;11.562;2024-02-21T02:55:10;4.90;99.90
4604;DHT22;2314;48.272;11.562;2024-02-21T02:57:37;4.90;99.90
4604;DHT22;2314;48.272;11.562;2024-02-21T03:00:07;4.90;99.90
4604;DHT22;2314;48.272;11.562;2024-02-21T03:02:35;4.90;99.90
4604;DHT22;2314;48.272;11.562;2024-02-21T03:05:12;4.90;99.90
4604;DHT22;2314;48.272;11.562;2024-02-21T03:07:41;4.90;99.90
4604;DHT22;2314;48.272;11.562;2024-02-21T03:10:09;4.90;99.90
4604;DHT22;2314;48.272;11.562;2024-02-21T03:12:37;4.80;99.90
4604;DHT22;2314;48.272;11.562;2024-02-21T03:15:06;4.80;99.90
4604;DHT22;2314;48.272;11.562;2024-02-21T03:17:33;4.80;99.90
4604;DHT22;2314;48.272;11.562;2024-02-21T03:20:01;4.80;99.90
4604;DHT22;2314;48.272;11.562;2024-02-21T03:22:30;4.80;99.90
4604;DHT22;2314;48.272;11.562;2024-02-21T03:24:58;4.80;99.90
4604;DHT22;2314;48.272;11.562;2024-02-21T03:27:25;4.80;99.90
4604;DHT22;2314;48.272;11.562;2024-02-21T03:29:52;4.80;99.90
4604;DHT22;2314;48.272;11.562;2024-02-21T03:32:20;4.80;99.90
4604;DHT22;2314;48.272;11.562;2024-02-21T03:34:47;4.80;99.90
4604;DHT22;2314;48.272;11.562;2024-02-21T03:37:14;4.80;99.90
4604;DHT22;2314;48.272;11.562;2024-02-21T03:39:41;4.80;99.90
4604;DHT22;2314;48.272;11.562;2024-02-21T03:42:08;4.80;99.90
4604;DHT22;2314;48.272;11.562;2024-02-21T03:44:36;4.80;99.90
4604;DHT22;2314;48.272;11.562;2024-02-21T03:47:03;4.80;99.90
4604;DHT22;2314;48.272;11.562;2024-02-21T03:49:32;4.80;99.90
4604;DHT22;2314;48.272;11.562;2024-02-21T03:51:59;4.80;99.90
4604;DHT22;2314;48.272;11.562;2024-02-21T03:54:26;4.80;99.90
4604;DHT22;2314;48.272;11.562;2024-02-21T03:56:53;4.80;99.90
4604;DHT22;2314;48.272;11.562;2024-02-21T03:59:20;4.80;99.90
4604;DHT22;2314;48.272;11.562;2024-02-21T04:01:51;4.70;99.90
4604;DHT22;2314;48.272;11.562;2024-02-21T04:04:18;4.80;99.90
4604;DHT22;2314;48.272;11.562;2024-02-21T04:06:50;4.70;99.90
4604;DHT22;2314;48.272;11.562;2024-02-21T04:09:17;4.70;99.90
4604;DHT22;2314;48.272;11.562;2024-02-21T04:11:45;4.70;99.90
4604;DHT22;2314;48.272;11.562;2024-02-21T04:14:12;4.60;99.90
4604;DHT22;2314;48.272;11.562;2024-02-21T04:16:39;4.60;99.90
4604;DHT22;2314;48.272;11.562;2024-02-21T04:19:06;4.60;99.90
4604;DHT22;2314;48.272;11.562;2024-02-21T04:21:33;4.60;99.90
4604;DHT22;2314;48.272;11.562;2024-02-21T04:24:01;4.60;99.90
4604;DHT22;2314;48.272;11.562;2024-02-21T04:26:30;4.60;99.90
4604;DHT22;2314;48.272;11.562;2024-02-21T04:28:57;4.60;99.90
4604;DHT22;2314;48.272;11.562;2024-02-21T04:31:24;4.60;99.90
4604;DHT22;2314;48.272;11.562;2024-02-21T04:33:52;4.60;99.90
4604;DHT22;2314;48.272;11.562;2024-02-21T04:36:18;4.60;99.90
4604;DHT22;2314;48.272;11.562;2024-02-21T04:38:46;4.60;99.90
4604;DHT22;2314;48.272;11.562;2024-02-21T04:41:14;4.70;99.90
4604;DHT22;2314;48.272;11.562;2024-02-21T04:43:41;4.70;99.90
4604;DHT22;2314;48.272;11.562;2024-02-21T04:46:08;4.60;99.90
4604;DHT22;2314;48.272;11.562;2024-02-21T04:48:35;4.60;99.90
4604;DHT22;2314;48.272;11.562;2024-02-21T04:51:02;4.50;99.90
4604;DHT22;2314;48.272;11.562;2024-02-21T04:53:30;4.50;99.90
4604;DHT22;2314;48.272;11.562;2024-02-21T04:55:57;4.40;99.90
4604;DHT22;2314;48.272;11.562;2024-02-21T04:58:25;4.40;99.90
4604;DHT22;2314;48.272;11.562;2024-02-21T05:00:52;4.30;99.90
4604;DHT22;2314;48.272;11.562;2024-02-21T05:03:20;4.30;99.90
4604;DHT22;2314;48.272;11.562;2024-02-21T05:05:47;4.20;99.90
4604;DHT22;2314;48.272;11.562;2024-02-21T05:08:14;4.20;99.90
4604;DHT22;2314;48.272;11.562;2024-02-21T05:10:41;4.20;99.90
4604;DHT22;2314;48.272;11.562;2024-02-21T05:13:08;4.10;99.90
4604;DHT22;2314;48.272;11.562;2024-02-21T05:15:36;4.10;99.90
4604;DHT22;2314;48.272;11.562;2024-02-21T05:18:04;4.10;99.90
4604;DHT22;2314;48.272;11.562;2024-02-21T05:20:31;4.10;99.90
4604;DHT22;2314;48.272;11.562;2024-02-21T05:22:58;4.10;99.90
4604;DHT22;2314;48.272;11.562;2024-02-21T05:25:25;4.10;99.90
4604;DHT22;2314;48.272;11.562;2024-02-21T05:27:52;4.10;99.90
4604;DHT22;2314;48.272;11.562;2024-02-21T05:30:19;4.20;99.90
4604;DHT22;2314;48.272;11.562;2024-02-21T05:32:48;4.20;99.90
4604;DHT22;2314;48.272;11.562;2024-02-21T05:35:14;4.20;99.90
4604;DHT22;2314;48.272;11.562;2024-02-21T05:37:42;4.20;99.90
4604;DHT22;2314;48.272;11.562;2024-02-21T05:40:10;4.30;99.90
4604;DHT22;2314;48.272;11.562;2024-02-21T05:42:38;4.30;99.90
4604;DHT22;2314;48.272;11.562;2024-02-21T05:45:06;4.30;99.90
4604;DHT22;2314;48.272;11.562;2024-02-21T05:47:33;4.40;99.90
4604;DHT22;2314;48.272;11.562;2024-02-21T05:50:01;4.40;99.90
4604;DHT22;2314;48.272;11.562;2024-02-21T05:52:29;4.40;99.90
4604;DHT22;2314;48.272;11.562;2024-02-21T05:54:56;4.40;99.90
4604;DHT22;2314;48.272;11.562;2024-02-21T05:57:23;4.40;99.90
4604;DHT22;2314;48.272;11.562;2024-02-21T05:59:50;4.30;99.90
4604;DHT22;2314;48.272;11.562;2024-02-21T06:02:17;4.20;99.90
4604;DHT22;2314;48.272;11.562;2024-02-21T06:04:44;4.10;99.90
4604;DHT22;2314;48.272;11.562;2024-02-21T06:07:13;4.10;99.90
4604;DHT22;2314;48.272;11.562;2024-02-21T06:09:40;4.00;99.90
4604;DHT22;2314;48.272;11.562;2024-02-21T06:12:07;4.10;99.90
4604;DHT22;2314;48.272;11.562;2024-02-21T06:14:34;4.30;99.90
4604;DHT22;2314;48.272;11.562;2024-02-21T06:17:01;4.40;99.90
4604;DHT22;2314;48.272;11.562;2024-02-21T06:19:28;4.30;99.90
4604;DHT22;2314;48.272;11.562;2024-02-21T06:21:55;4.20;99.90
4604;DHT22;2314;48.272;11.562;2024-02-21T06:24:23;4.20;99.90
4604;DHT22;2314;48.272;11.562;2024-02-21T06:26:50;4.20;99.90
4604;DHT22;2314;48.272;11.562;2024-02-21T06:29:17;4.30;99.90
4604;DHT22;2314;48.272;11.562;2024-02-21T06:31:44;4.30;99.90
4604;DHT22;2314;48.272;11.562;2024-02-21T06:34:11;4.30;99.90
4604;DHT22;2314;48.272;11.562;2024-02-21T06:36:38;4.40;99.90
4604;DHT22;2314;48.272;11.562;2024-02-21T06:39:05;4.40;99.90
4604;DHT22;2314;48.272;11.562;2024-02-21T06:41:35;4.50;99.90
4604;DHT22;2314;48.272;11.562;2024-02-21T06:44:02;4.50;99.90
4604;DHT22;2314;48.272;11.562;2024-02-21T06:46:29;4.50;99.90
4604;DHT22;2314;48.272;11.562;2024-02-21T06:48:59;4.50;99.90
4604;DHT22;2314;48.272;11.562;2024-02-21T06:51:28;4.60;99.90
4604;DHT22;2314;48.272;11.562;2024-02-21T06:53:55;4.70;99.90
4604;DHT22;2314;48.272;11.562;2024-02-21T06:56:24;4.80;99.90
4604;DHT22;2314;48.272;11.562;2024-02-21T06:58:56;4.90;99.90
4604;DHT22;2314;48.272;11.562;2024-02-21T07:01:23;5.00;99.90
4604;DHT22;2314;48.272;11.562;2024-02-21T07:03:50;5.00;99.90
4604;DHT22;2314;48.272;11.562;2024-02-21T07:06:17;5.00;99.90
4604;DHT22;2314;48.272;11.562;2024-02-21T07:08:44;5.10;99.90
4604;DHT22;2314;48.272;11.562;2024-02-21T07:11:11;5.20;99.90
4604;DHT22;2314;48.272;11.562;2024-02-21T07:13:38;5.50;99.90
4604;DHT22;2314;48.272;11.562;2024-02-21T07:16:07;5.80;99.90
4604;DHT22;2314;48.272;11.562;2024-02-21T07:18:34;6.10;99.90
4604;DHT22;2314;48.272;11.562;2024-02-21T07:21:01;6.60;99.90
4604;DHT22;2314;48.272;11.562;2024-02-21T07:23:28;7.00;99.90
4604;DHT22;2314;48.272;11.562;2024-02-21T07:25:55;7.30;99.90
4604;DHT22;2314;48.272;11.562;2024-02-21T07:28:22;7.30;99.90
4604;DHT22;2314;48.272;11.562;2024-02-21T07:30:48;7.20;99.90
4604;DHT22;2314;48.272;11.562;2024-02-21T07:33:17;7.10;99.90
4604;DHT22;2314;48.272;11.562;2024-02-21T07:35:44;7.10;99.90
4604;DHT22;2314;48.272;11.562;2024-02-21T07:38:11;7.10;99.90
4604;DHT22;2314;48.272;11.562;2024-02-21T07:40:38;7.20;99.90
4604;DHT22;2314;48.272;11.562;2024-02-21T07:43:05;7.40;99.90
4604;DHT22;2314;48.272;11.562;2024-02-21T07:45:32;7.40;99.90
4604;DHT22;2314;48.272;11.562;2024-02-21T07:47:59;7.40;99.90
4604;DHT22;2314;48.272;11.562;2024-02-21T07:50:27;7.20;99.90
4604;DHT22;2314;48.272;11.562;2024-02-21T07:52:54;7.00;99.90
4604;DHT22;2314;48.272;11.562;2024-02-21T07:55:21;6.90;99.90
4604;DHT22;2314;48.272;11.562;2024-02-21T07:57:48;7.00;99.90
4604;DHT22;2314;48.272;11.562;2024-02-21T08:00:16;7.10;99.90
4604;DHT22;2314;48.272;11.562;2024-02-21T08:02:48;7.30;99.90
4604;DHT22;2314;48.272;11.562;2024-02-21T08:05:15;7.30;99.90
4604;DHT22;2314;48.272;11.562;2024-02-21T08:07:44;7.50;99.90
4604;DHT22;2314;48.272;11.562;2024-02-21T08:10:11;7.80;99.90
4604;DHT22;2314;48.272;11.562;2024-02-21T08:12:38;8.00;99.90
4604;DHT22;2314;48.272;11.562;2024-02-21T08:15:06;8.70;99.90
4604;DHT22;2314;48.272;11.562;2024-02-21T08:17:36;9.80;99.90
4604;DHT22;2314;48.272;11.562;2024-02-21T08:20:03;10.80;99.90
4604;DHT22;2314;48.272;11.562;2024-02-21T08:22:31;11.90;99.90
4604;DHT22;2314;48.272;11.562;2024-02-21T08:24:59;12.70;99.20
4604;DHT22;2314;48.272;11.562;2024-02-21T08:27:26;13.20;95.50
4604;DHT22;2314;48.272;11.562;2024-02-21T08:29:53;13.20;94.20
4604;DHT22;2314;48.272;11.562;2024-02-21T08:32:20;13.10;95.30
4604;DHT22;2314;48.272;11.562;2024-02-21T08:34:47;13.20;94.10
4604;DHT22;2314;48.272;11.562;2024-02-21T08:37:14;13.30;92.30
4604;DHT22;2314;48.272;11.562;2024-02-21T08:39:41;13.60;93.30
4604;DHT22;2314;48.272;11.562;2024-02-21T08:42:09;13.80;93.10
4604;DHT22;2314;48.272;11.562;2024-02-21T08:44:39;14.10;92.60
4604;DHT22;2314;48.272;11.562;2024-02-21T08:47:07;14.30;89.80
4604;DHT22;2314;48.272;11.562;2024-02-21T08:49:35;14.30;88.80
4604;DHT22;2314;48.272;11.562;2024-02-21T08:52:03;14.10;85.00
4604;DHT22;2314;48.272;11.562;2024-02-21T08:54:31;13.80;86.00
4604;DHT22;2314;48.272;11.562;2024-02-21T08:56:58;13.40;86.90
4604;DHT22;2314;48.272;11.562;2024-02-21T08:59:26;13.00;91.80
4604;DHT22;2314;48.272;11.562;2024-02-21T09:01:53;12.60;94.10
4604;DHT22;2314;48.272;11.562;2024-02-21T09:04:20;12.30;94.60
4604;DHT22;2314;48.272;11.562;2024-02-21T09:06:47;12.10;96.40
4604;DHT22;2314;48.272;11.562;2024-02-21T09:09:14;12.00;97.00
4604;DHT22;2314;48.272;11.562;2024-02-21T09:11:42;11.90;97.70
4604;DHT22;2314;48.272;11.562;2024-02-21T09:14:09;11.90;95.20
4604;DHT22;2314;48.272;11.562;2024-02-21T09:16:37;11.70;97.40
4604;DHT22;2314;48.272;11.562;2024-02-21T09:19:05;11.60;99.90
4604;DHT22;2314;48.272;11.562;2024-02-21T09:21:32;11.50;98.40
4604;DHT22;2314;48.272;11.562;2024-02-21T09:23:59;11.50;98.60
4604;DHT22;2314;48.272;11.562;2024-02-21T09:26:26;11.40;99.40
4604;DHT22;2314;48.272;11.562;2024-02-21T09:28:53;11.20;99.40
4604;DHT22;2314;48.272;11.562;2024-02-21T09:31:20;11.10;99.90
4604;DHT22;2314;48.272;11.562;2024-02-21T09:33:49;10.90;99.90
4604;DHT22;2314;48.272;11.562;2024-02-21T09:36:16;10.80;99.90
4604;DHT22;2314;48.272;11.562;2024-02-21T09:38:43;10.70;99.90
4604;DHT22;2314;48.272;11.562;2024-02-21T09:41:15;10.70;99.90
4604;DHT22;2314;48.272;11.562;2024-02-21T09:43:44;10.60;99.90
4604;DHT22;2314;48.272;11.562;2024-02-21T09:46:16;10.60;99.90
4604;DHT22;2314;48.272;11.562;2024-02-21T09:49:02;10.80;99.90
4604;DHT22;2314;48.272;11.562;2024-02-21T09:51:34;10.80;99.20
4604;DHT22;2314;48.272;11.562;2024-02-21T09:54:03;10.90;99.90
4604;DHT22;2314;48.272;11.562;2024-02-21T09:56:31;11.20;98.30
4604;DHT22;2314;48.272;11.562;2024-02-21T09:58:58;11.40;97.40
4604;DHT22;2314;48.272;11.562;2024-02-21T10:01:26;11.80;97.70
4604;DHT22;2314;48.272;11.562;2024-02-21T10:03:53;12.30;95.40
4604;DHT22;2314;48.272;11.562;2024-02-21T10:06:21;12.70;92.60
4604;DHT22;2314;48.272;11.562;2024-02-21T10:08:52;12.90;92.40
4604;DHT22;2314;48.272;11.562;2024-02-21T10:11:23;13.30;90.00
4604;DHT22;2314;48.272;11.562;2024-02-21T10:13:50;13.50;88.60
4604;DHT22;2314;48.272;11.562;2024-02-21T10:16:17;13.60;89.20
4604;DHT22;2314;48.272;11.562;2024-02-21T10:18:44;13.90;85.00
4604;DHT22;2314;48.272;11.562;2024-02-21T10:21:11;13.90;85.00
4604;DHT22;2314;48.272;11.562;2024-02-21T10:23:43;14.00;87.80
4604;DHT22;2314;48.272;11.562;2024-02-21T10:26:11;14.10;86.90
4604;DHT22;2314;48.272;11.562;2024-02-21T10:28:39;14.30;83.90
4604;DHT22;2314;48.272;11.562;2024-02-21T10:31:08;14.50;81.40
4604;DHT22;2314;48.272;11.562;2024-02-21T10:33:36;14.70;82.20
4604;DHT22;2314;48.272;11.562;2024-02-21T10:36:09;14.90;73.90
4604;DHT22;2314;48.272;11.562;2024-02-21T10:38:38;15.10;71.60
4604;DHT22;2314;48.272;11.562;2024-02-21T10:41:06;15.10;71.40
4604;DHT22;2314;48.272;11.562;2024-02-21T10:43:39;15.10;76.20
4604;DHT22;2314;48.272;11.562;2024-02-21T10:46:07;15.20;66.40
4604;DHT22;2314;48.272;11.562;2024-02-21T10:48:42;15.30;71.30
4604;DHT22;2314;48.272;11.562;2024-02-21T10:51:15;15.20;63.60
4604;DHT22;2314;48.272;11.562;2024-02-21T10:53:50;15.20;68.00
4604;DHT22;2314;48.272;11.562;2024-02-21T10:56:28;15.30;68.30
4604;DHT22;2314;48.272;11.562;2024-02-21T10:58:58;15.30;73.00
4604;DHT22;2314;48.272;11.562;2024-02-21T11:01:25;15.40;69.70
4604;DHT22;2314;48.272;11.562;2024-02-21T11:03:55;15.40;64.60
4604;DHT22;2314;48.272;11.562;2024-02-21T11:06:25;15.40;68.60
4604;DHT22;2314;48.272;11.562;2024-02-21T11:09:04;15.40;71.10
4604;DHT22;2314;48.272;11.562;2024-02-21T11:11:37;15.50;67.90
4604;DHT22;2314;48.272;11.562;2024-02-21T11:14:09;15.40;70.10
4604;DHT22;2314;48.272;11.562;2024-02-21T11:16:37;15.30;59.90
4604;DHT22;2314;48.272;11.562;2024-02-21T11:19:08;15.30;62.60
4604;DHT22;2314;48.272;11.562;2024-02-21T11:21:37;15.50;62.80
4604;DHT22;2314;48.272;11.562;2024-02-21T11:24:04;15.60;61.00
4604;DHT22;2314;48.272;11.562;2024-02-21T11:26:32;15.60;59.30
4604;DHT22;2314;48.272;11.562;2024-02-21T11:29:00;15.60;57.10
4604;DHT22;2314;48.272;11.562;2024-02-21T11:31:38;15.60;56.60
4604;DHT22;2314;48.272;11.562;2024-02-21T11:34:09;15.70;53.50
4604;DHT22;2314;48.272;11.562;2024-02-21T11:36:39;15.70;54.50
4604;DHT22;2314;48.272;11.562;2024-02-21T11:39:17;15.70;50.40
4604;DHT22;2314;48.272;11.562;2024-02-21T11:41:44;15.50;50.70
4604;DHT22;2314;48.272;11.562;2024-02-21T11:44:13;15.50;54.60
4604;DHT22;2314;48.272;11.562;2024-02-21T11:46:40;15.50;52.70
4604;DHT22;2314;48.272;11.562;2024-02-21T11:49:07;15.60;51.60
4604;DHT22;2314;48.272;11.562;2024-02-21T11:51:34;15.50;48.50
4604;DHT22;2314;48.272;11.562;2024-02-21T11:54:01;15.50;46.90
4604;DHT22;2314;48.272;11.562;2024-02-21T11:56:30;15.50;51.70
4604;DHT22;2314;48.272;11.562;2024-02-21T11:58:59;15.50;47.60
4604;DHT22;2314;48.272;11.562;2024-02-21T12:01:27;15.40;47.90
4604;DHT22;2314;48.272;11.562;2024-02-21T12:03:55;15.40;47.00
4604;DHT22;2314;48.272;11.562;2024-02-21T12:06:22;15.40;46.80
4604;DHT22;2314;48.272;11.562;2024-02-21T12:08:49;15.40;44.80
4604;DHT22;2314;48.272;11.562;2024-02-21T12:11:20;15.50;44.80
4604;DHT22;2314;48.272;11.562;2024-02-21T12:13:47;15.50;45.10
4604;DHT22;2314;48.272;11.562;2024-02-21T12:16:27;15.60;41.90
4604;DHT22;2314;48.272;11.562;2024-02-21T12:18:55;15.70;43.50
4604;DHT22;2314;48.272;11.562;2024-02-21T12:21:26;15.80;43.30
4604;DHT22;2314;48.272;11.562;2024-02-21T12:23:54;15.90;37.60
4604;DHT22;2314;48.272;11.562;2024-02-21T12:26:21;15.90;40.60
4604;DHT22;2314;48.272;11.562;2024-02-21T12:28:48;15.80;38.90
4604;DHT22;2314;48.272;11.562;2024-02-21T12:31:15;15.70;42.10
4604;DHT22;2314;48.272;11.562;2024-02-21T12:33:44;15.60;40.00
4604;DHT22;2314;48.272;11.562;2024-02-21T12:36:11;15.60;38.10
4604;DHT22;2314;48.272;11.562;2024-02-21T12:38:38;15.50;40.60
4604;DHT22;2314;48.272;11.562;2024-02-21T12:41:05;15.50;37.20
4604;DHT22;2314;48.272;11.562;2024-02-21T12:43:33;15.60;43.50
4604;DHT22;2314;48.272;11.562;2024-02-21T12:46:00;15.50;41.20
4604;DHT22;2314;48.272;11.562;2024-02-21T12:48:27;15.50;40.00
4604;DHT22;2314;48.272;11.562;2024-02-21T12:50:55;15.50;41.90
4604;DHT22;2314;48.272;11.562;2024-02-21T12:53:21;15.50;34.50
4604;DHT22;2314;48.272;11.562;2024-02-21T12:55:49;15.50;36.80
4604;DHT22;2314;48.272;11.562;2024-02-21T12:58:16;15.50;30.70
4604;DHT22;2314;48.272;11.562;2024-02-21T13:00:43;15.60;32.80
4604;DHT22;2314;48.272;11.562;2024-02-21T13:03:11;15.50;34.10
4604;DHT22;2314;48.272;11.562;2024-02-21T13:05:38;15.40;30.80
4604;DHT22;2314;48.272;11.562;2024-02-21T13:08:08;15.40;35.00
4604;DHT22;2314;48.272;11.562;2024-02-21T13:10:36;15.40;31.30
4604;DHT22;2314;48.272;11.562;2024-02-21T13:13:03;15.30;32.50
4604;DHT22;2314;48.272;11.562;2024-02-21T13:15:30;15.30;35.60
4604;DHT22;2314;48.272;11.562;2024-02-21T13:17:57;15.30;33.00
4604;DHT22;2314;48.272;11.562;2024-02-21T13:20:25;15.40;34.80
4604;DHT22;2314;48.272;11.562;2024-02-21T13:22:53;15.30;32.40
4604;DHT22;2314;48.272;11.562;2024-02-21T13:25:22;15.30;31.40
4604;DHT22;2314;48.272;11.562;2024-02-21T13:27:49;15.20;34.50
4604;DHT22;2314;48.272;11.562;2024-02-21T13:30:16;15.20;34.50
4604;DHT22;2314;48.272;11.562;2024-02-21T13:32:44;15.10;32.00
4604;DHT22;2314;48.272;11.562;2024-02-21T13:35:12;15.10;31.90
4604;DHT22;2314;48.272;11.562;2024-02-21T13:37:40;15.10;30.00
4604;DHT22;2314;48.272;11.562;2024-02-21T13:40:08;15.10;28.80
4604;DHT22;2314;48.272;11.562;2024-02-21T13:42:37;15.00;30.70
4604;DHT22;2314;48.272;11.562;2024-02-21T13:45:05;15.00;35.10
4604;DHT22;2314;48.272;11.562;2024-02-21T13:47:33;15.00;31.80
4604;DHT22;2314;48.272;11.562;2024-02-21T13:50:01;15.00;33.00
4604;DHT22;2314;48.272;11.562;2024-02-21T13:52:30;15.00;38.60
4604;DHT22;2314;48.272;11.562;2024-02-21T13:54:57;15.10;35.40
4604;DHT22;2314;48.272;11.562;2024-02-21T13:57:24;15.00;31.80
4604;DHT22;2314;48.272;11.562;2024-02-21T13:59:53;15.00;34.50
4604;DHT22;2314;48.272;11.562;2024-02-21T14:02:20;14.90;30.70
4604;DHT22;2314;48.272;11.562;2024-02-21T14:04:47;14.90;34.00
4604;DHT22;2314;48.272;11.562;2024-02-21T14:07:14;14.90;34.20
4604;DHT22;2314;48.272;11.562;2024-02-21T14:09:41;14.80;33.00
4604;DHT22;2314;48.272;11.562;2024-02-21T14:12:08;14.80;37.20
4604;DHT22;2314;48.272;11.562;2024-02-21T14:14:35;14.70;35.70
4604;DHT22;2314;48.272;11.562;2024-02-21T14:17:04;14.60;35.80
4604;DHT22;2314;48.272;11.562;2024-02-21T14:19:31;14.60;46.20
4604;DHT22;2314;48.272;11.562;2024-02-21T14:21:58;14.60;42.50
4604;DHT22;2314;48.272;11.562;2024-02-21T14:24:25;14.60;38.10
4604;DHT22;2314;48.272;11.562;2024-02-21T14:26:53;14.60;45.00
4604;DHT22;2314;48.272;11.562;2024-02-21T14:29:20;14.80;42.50
4604;DHT22;2314;48.272;11.562;2024-02-21T14:31:47;14.80;44.30
4604;DHT22;2314;48.272;11.562;2024-02-21T14:34:15;14.80;44.60
4604;DHT22;2314;48.272;11.562;2024-02-21T14:36:42;14.80;40.60
4604;DHT22;2314;48.272;11.562;2024-02-21T14:39:09;14.70;42.30
4604;DHT22;2314;48.272;11.562;2024-02-21T14:41:36;14.60;38.90
4604;DHT22;2314;48.272;11.562;2024-02-21T14:44:05;14.50;39.10
4604;DHT22;2314;48.272;11.562;2024-02-21T14:46:35;14.50;39.10
4604;DHT22;2314;48.272;11.562;2024-02-21T14:49:03;14.40;38.40
4604;DHT22;2314;48.272;11.562;2024-02-21T14:51:31;14.40;39.70
4604;DHT22;2314;48.272;11.562;2024-02-21T14:53:59;14.40;36.60
4604;DHT22;2314;48.272;11.562;2024-02-21T14:56:26;14.20;35.60
4604;DHT22;2314;48.272;11.562;2024-02-21T14:58:52;14.10;38.10
4604;DHT22;2314;48.272;11.562;2024-02-21T15:01:19;14.10;37.60
4604;DHT22;2314;48.272;11.562;2024-02-21T15:03:46;13.90;39.40
4604;DHT22;2314;48.272;11.562;2024-02-21T15:06:13;13.80;38.30
4604;DHT22;2314;48.272;11.562;2024-02-21T15:08:41;13.70;38.30
4604;DHT22;2314;48.272;11.562;2024-02-21T15:11:09;13.50;38.70
4604;DHT22;2314;48.272;11.562;2024-02-21T15:13:36;13.40;41.70
4604;DHT22;2314;48.272;11.562;2024-02-21T15:16:04;13.30;41.80
4604;DHT22;2314;48.272;11.562;2024-02-21T15:18:31;13.30;42.00
4604;DHT22;2314;48.272;11.562;2024-02-21T15:20:58;13.20;49.00
4604;DHT22;2314;48.272;11.562;2024-02-21T15:23:26;13.10;55.30
4604;DHT22;2314;48.272;11.562;2024-02-21T15:25:55;13.10;54.30
4604;DHT22;2314;48.272;11.562;2024-02-21T15:28:22;12.90;50.40
4604;DHT22;2314;48.272;11.562;2024-02-21T15:30:49;12.90;49.70
4604;DHT22;2314;48.272;11.562;2024-02-21T15:33:16;12.70;50.90
4604;DHT22;2314;48.272;11.562;2024-02-21T15:35:43;12.60;52.20
4604;DHT22;2314;48.272;11.562;2024-02-21T15:38:10;12.60;59.50
4604;DHT22;2314;48.272;11.562;2024-02-21T15:40:36;12.40;62.20
4604;DHT22;2314;48.272;11.562;2024-02-21T15:43:05;12.30;59.90
4604;DHT22;2314;48.272;11.562;2024-02-21T15:45:33;12.20;61.60
4604;DHT22;2314;48.272;11.562;2024-02-21T15:48:00;12.20;62.50
4604;DHT22;2314;48.272;11.562;2024-02-21T15:50:29;12.10;60.00
4604;DHT22;2314;48.272;11.562;2024-02-21T15:52:56;11.90;56.20
4604;DHT22;2314;48.272;11.562;2024-02-21T15:55:23;11.80;56.20
4604;DHT22;2314;48.272;11.562;2024-02-21T15:57:50;11.80;58.80